Time;durP1;ratioP1;P1;durP2;ratioP2;P2;SDS_P1;SDS_P2;PMS_P1;PMS_P2;Temp;Humidity;BMP_temperature;BMP_pressure;BME280_temperature;BME280_humidity;BME280_pressure;Samples;Min_cycle;Max_cycle;Signal;HPM_P1;HPM_P2
2023/05/04 00:00:01;;;;;;;3.08;1.05;;;21.00;34.40;;;;;;5066905;28;20124;-59
2023/05/04 00:02:30;;;;;;;1.70;0.93;;;21.00;34.40;;;;;;5068788;28;20051;-62
2023/05/04 00:04:56;;;;;;;1.40;0.90;;;21.00;35.00;;;;;;5085761;28;20186;-61
2023/05/04 00:07:22;;;;;;;2.40;1.20;;;21.00;34.30;;;;;;5081978;28;20024;-59
2023/05/04 00:09:49;;;;;;;1.60;0.90;;;21.00;34.30;;;;;;5087439;28;20039;-60
2023/05/04 00:12:15;;;;;;;1.52;0.95;;;21.00;34.30;;;;;;5085425;28;20168;-61
2023/05/04 00:14:41;;;;;;;1.48;0.90;;;21.00;34.30;;;;;;5087911;28;20111;-60
2023/05/04 00:17:07;;;;;;;1.65;0.80;;;21.00;34.30;;;;;;5084393;28;20172;-59
2023/05/04 00:19:34;;;;;;;2.60;1.02;;;21.00;34.30;;;;;;5080739;28;20413;-61
2023/05/04 00:22:00;;;;;;;2.13;0.90;;;21.00;34.30;;;;;;5086242;28;20454;-60
2023/05/04 00:24:26;;;;;;;3.22;1.10;;;21.00;34.30;;;;;;5086644;28;20028;-60
2023/05/04 00:26:53;;;;;;;1.52;0.88;;;21.00;34.30;;;;;;5086497;28;20111;-61
2023/05/04 00:29:19;;;;;;;1.35;0.88;;;21.00;34.30;;;;;;5085257;28;20589;-57
2023/05/04 00:31:45;;;;;;;1.63;0.98;;;21.00;34.30;;;;;;5086858;28;20107;-58
2023/05/04 00:34:11;;;;;;;1.58;0.80;;;21.00;34.30;;;;;;5085025;28;20323;-61
2023/05/04 00:36:37;;;;;;;1.70;0.82;;;21.00;34.30;;;;;;5086712;28;20333;-60
2023/05/04 00:39:03;;;;;;;2.72;0.90;;;21.00;34.30;;;;;;5085177;28;20110;-60
2023/05/04 00:41:29;;;;;;;2.33;1.00;;;21.00;34.20;;;;;;5068394;28;20043;-62
2023/05/04 00:43:55;;;;;;;1.80;0.82;;;21.00;34.20;;;;;;5084660;28;20028;-60
2023/05/04 00:46:22;;;;;;;2.58;0.90;;;21.00;34.20;;;;;;5068387;28;20044;-59
2023/05/04 00:48:48;;;;;;;1.65;0.90;;;21.00;34.20;;;;;;5066816;28;20051;-61
2023/05/04 00:51:16;;;;;;;0.98;0.70;;;21.00;34.20;;;;;;5066345;28;20028;-59
2023/05/04 00:53:42;;;;;;;1.98;1.08;;;21.00;34.20;;;;;;5065778;28;20063;-61
2023/05/04 00:56:08;;;;;;;2.15;1.00;;;21.00;34.20;;;;;;5086508;28;20086;-60
2023/05/04 00:58:34;;;;;;;1.50;1.05;;;21.00;34.20;;;;;;5067818;28;20673;-58
2023/05/04 01:01:01;;;;;;;1.27;0.90;;;21.10;34.30;;;;;;5064565;28;20043;-60
2023/05/04 01:03:27;;;;;;;2.10;1.08;;;21.00;34.20;;;;;;5067846;28;20035;-58
2023/05/04 01:06:16;;;;;;;1.17;0.70;;;21.00;34.20;;;;;;5084932;28;20020;-61
2023/05/04 01:08:51;;;;;;;4.43;0.98;;;21.10;34.20;;;;;;5065495;28;20204;-59
2023/05/04 01:11:25;;;;;;;2.53;0.98;;;21.10;34.20;;;;;;5084289;28;20107;-59
2023/05/04 01:13:51;;;;;;;1.00;0.75;;;21.00;34.20;;;;;;5085674;28;20968;-57
2023/05/04 01:16:19;;;;;;;1.30;0.82;;;21.10;34.30;;;;;;5085445;28;20040;-61
2023/05/04 01:18:45;;;;;;;1.63;0.82;;;21.10;34.30;;;;;;5083798;28;20485;-60
2023/05/04 01:21:11;;;;;;;2.90;1.50;;;21.10;34.30;;;;;;5084481;28;20355;-59
2023/05/04 01:23:37;;;;;;;1.88;0.90;;;21.10;34.30;;;;;;5086686;28;20039;-61
2023/05/04 01:26:03;;;;;;;1.67;0.93;;;21.10;34.20;;;;;;5085539;28;20123;-56
2023/05/04 01:28:54;;;;;;;2.10;1.00;;;21.10;34.20;;;;;;5083457;28;20303;-60
2023/05/04 01:31:22;;;;;;;3.42;1.00;;;21.10;34.20;;;;;;5078980;28;20036;-59
2023/05/04 01:33:51;;;;;;;1.38;0.80;;;21.10;34.20;;;;;;5066639;28;20311;-58
2023/05/04 01:36:21;;;;;;;1.88;0.95;;;21.10;34.20;;;;;;5065328;28;20099;-59
2023/05/04 01:38:47;;;;;;;1.50;0.93;;;21.10;34.20;;;;;;5084504;28;20036;-62
2023/05/04 01:41:13;;;;;;;1.52;0.80;;;21.00;34.10;;;;;;5048195;28;20446;-62
2023/05/04 01:43:41;;;;;;;1.25;0.90;;;21.00;34.10;;;;;;5085574;28;20028;-60
2023/05/04 01:46:07;;;;;;;2.25;1.00;;;21.10;34.20;;;;;;5084511;28;20051;-59
2023/05/04 01:48:33;;;;;;;1.65;0.90;;;21.10;34.20;;;;;;5083911;28;20355;-61
2023/05/04 01:50:59;;;;;;;1.23;0.90;;;21.00;34.10;;;;;;5064622;28;20047;-61
2023/05/04 01:53:25;;;;;;;2.58;1.25;;;21.00;34.10;;;;;;5067037;28;20058;-62
2023/05/04 01:55:52;;;;;;;1.33;0.88;;;21.00;34.10;;;;;;5063079;28;20090;-61
2023/05/04 01:58:18;;;;;;;2.25;0.73;;;21.00;34.10;;;;;;5068085;28;20054;-58
2023/05/04 02:00:45;;;;;;;1.58;1.00;;;21.10;34.10;;;;;;5065099;28;20031;-57
2023/05/04 02:03:10;;;;;;;2.50;1.00;;;21.00;34.00;;;;;;5067852;28;20032;-60
2023/05/04 02:05:36;;;;;;;2.47;0.80;;;21.00;34.10;;;;;;5066878;28;20032;-61
2023/05/04 02:08:02;;;;;;;1.70;1.00;;;21.00;34.10;;;;;;5064811;28;20028;-58
2023/05/04 02:10:28;;;;;;;1.20;0.80;;;21.00;34.00;;;;;;5066163;28;20026;-61
2023/05/04 02:12:54;;;;;;;0.70;0.60;;;21.00;34.10;;;;;;5085397;28;20378;-62
2023/05/04 02:15:20;;;;;;;2.33;0.90;;;21.00;34.00;;;;;;5067766;28;20048;-63
2023/05/04 02:17:46;;;;;;;1.63;0.98;;;21.00;34.00;;;;;;5064847;28;20089;-59
2023/05/04 02:20:12;;;;;;;1.85;0.90;;;21.00;34.00;;;;;;5067953;28;20020;-60
2023/05/04 02:22:38;;;;;;;1.10;0.70;;;21.00;34.00;;;;;;5066450;28;20043;-61
2023/05/04 02:25:05;;;;;;;1.45;0.82;;;21.00;34.00;;;;;;5085463;28;20381;-60
2023/05/04 02:27:30;;;;;;;1.90;0.70;;;21.00;34.00;;;;;;5065935;28;20103;-60
2023/05/04 02:29:59;;;;;;;1.15;0.80;;;21.00;34.00;;;;;;5067071;28;20135;-62
2023/05/04 02:32:25;;;;;;;1.80;0.93;;;21.00;34.00;;;;;;5087813;28;20059;-60
2023/05/04 02:34:52;;;;;;;1.58;0.93;;;21.00;34.00;;;;;;5068874;28;20111;-61
2023/05/04 02:37:18;;;;;;;1.42;0.90;;;21.00;34.00;;;;;;5088231;28;20100;-60
2023/05/04 02:39:44;;;;;;;1.42;0.80;;;21.00;34.00;;;;;;5070068;28;20071;-59
2023/05/04 02:42:10;;;;;;;2.30;1.13;;;21.00;34.00;;;;;;5087422;28;20130;-59
2023/05/04 02:44:36;;;;;;;1.17;0.70;;;21.00;34.00;;;;;;5087992;28;20089;-61
2023/05/04 02:47:02;;;;;;;1.48;0.85;;;21.00;34.00;;;;;;5071104;28;20047;-59
2023/05/04 02:49:28;;;;;;;1.67;0.90;;;21.00;34.00;;;;;;5069363;28;20048;-59
2023/05/04 02:51:54;;;;;;;1.30;0.70;;;21.00;34.00;;;;;;5071188;28;20052;-61
2023/05/04 02:54:20;;;;;;;0.82;0.70;;;21.00;34.00;;;;;;5087227;28;20488;-60
2023/05/04 02:56:46;;;;;;;1.80;0.90;;;21.00;34.00;;;;;;5068808;28;20371;-61
2023/05/04 02:59:12;;;;;;;1.08;0.90;;;21.00;34.00;;;;;;5068874;28;20046;-60
2023/05/04 03:01:37;;;;;;;3.30;0.80;;;21.00;34.00;;;;;;5088594;28;20028;-62
2023/05/04 03:04:04;;;;;;;1.52;0.80;;;21.00;34.00;;;;;;5087309;28;20048;-59
2023/05/04 03:06:30;;;;;;;1.85;0.70;;;21.00;34.00;;;;;;5088605;28;20152;-59
2023/05/04 03:08:56;;;;;;;1.83;0.90;;;21.00;34.00;;;;;;5084569;28;20044;-62
2023/05/04 03:11:22;;;;;;;1.80;0.95;;;21.00;34.00;;;;;;5070916;28;20043;-60
2023/05/04 03:13:48;;;;;;;1.50;1.00;;;21.00;33.90;;;;;;5068565;28;20012;-61
2023/05/04 03:16:15;;;;;;;1.30;0.88;;;21.00;33.90;;;;;;5070157;28;20356;-59
2023/05/04 03:18:41;;;;;;;0.88;0.77;;;21.00;33.90;;;;;;5069077;28;20059;-58
2023/05/04 03:21:07;;;;;;;2.25;1.10;;;21.00;33.90;;;;;;5069768;28;20436;-60
2023/05/04 03:23:33;;;;;;;1.13;0.80;;;21.00;33.90;;;;;;5069556;28;21356;-59
2023/05/04 03:25:59;;;;;;;2.92;1.02;;;21.00;33.90;;;;;;5067558;28;20028;-60
2023/05/04 03:28:25;;;;;;;1.48;0.85;;;21.00;34.60;;;;;;5070615;28;20036;-60
2023/05/04 03:30:52;;;;;;;2.53;0.88;;;21.00;33.90;;;;;;5069055;28;20057;-60
2023/05/04 03:33:19;;;;;;;1.85;0.80;;;21.00;33.90;;;;;;5053514;28;20016;-61
2023/05/04 03:35:45;;;;;;;0.93;0.80;;;21.00;33.90;;;;;;5084997;28;20039;-61
2023/05/04 03:38:11;;;;;;;1.52;0.90;;;21.00;33.90;;;;;;5069771;28;20018;-60
2023/05/04 03:40:37;;;;;;;1.23;0.70;;;21.00;33.90;;;;;;5086745;28;20457;-61
2023/05/04 03:43:04;;;;;;;0.95;0.60;;;21.00;33.90;;;;;;5068590;28;20475;-59
2023/05/04 03:45:30;;;;;;;2.05;1.23;;;21.00;33.90;;;;;;5067920;28;20048;-61
2023/05/04 03:47:57;;;;;;;3.03;1.05;;;21.00;33.80;;;;;;5068374;28;20387;-59
2023/05/04 03:50:24;;;;;;;2.35;0.95;;;21.00;33.80;;;;;;5052063;28;20118;-60
2023/05/04 03:52:50;;;;;;;1.67;1.05;;;21.00;33.90;;;;;;5086934;28;20205;-60
2023/05/04 03:55:19;;;;;;;1.85;1.10;;;20.90;33.80;;;;;;5067033;28;20576;-62
2023/05/04 03:57:48;;;;;;;1.13;0.80;;;21.00;33.90;;;;;;5053804;28;20028;-61
2023/05/04 04:00:14;;;;;;;2.13;0.90;;;21.00;33.90;;;;;;5087551;28;20031;-61
2023/05/04 04:02:40;;;;;;;1.70;0.82;;;21.00;33.90;;;;;;5087892;28;20016;-61
2023/05/04 04:05:08;;;;;;;1.33;0.70;;;21.00;33.90;;;;;;5066586;28;21036;-60
2023/05/04 04:07:35;;;;;;;1.13;0.80;;;21.00;33.90;;;;;;5084070;28;20035;-62
2023/05/04 04:10:01;;;;;;;1.63;0.82;;;21.00;34.00;;;;;;5086581;28;20035;-61
2023/05/04 04:12:27;;;;;;;1.33;0.70;;;20.90;33.90;;;;;;5067628;28;20119;-58
2023/05/04 04:14:52;;;;;;;2.70;0.93;;;20.90;33.90;;;;;;5086966;28;20492;-61
2023/05/04 04:17:18;;;;;;;1.33;0.88;;;20.90;33.90;;;;;;5084625;28;20170;-58
2023/05/04 04:19:44;;;;;;;2.08;1.00;;;20.90;33.90;;;;;;5087636;28;20108;-62
2023/05/04 04:22:10;;;;;;;1.50;0.82;;;20.90;33.90;;;;;;5086694;28;20081;-62
2023/05/04 04:24:36;;;;;;;1.45;0.73;;;21.00;33.90;;;;;;5085603;28;20208;-61
2023/05/04 04:27:02;;;;;;;1.85;1.10;;;20.90;33.80;;;;;;5086353;28;20435;-61
2023/05/04 04:29:27;;;;;;;1.60;1.00;;;20.90;33.80;;;;;;5086709;28;20044;-63
2023/05/04 04:31:53;;;;;;;1.17;0.80;;;20.90;33.80;;;;;;5084893;28;20024;-61
2023/05/04 04:34:19;;;;;;;1.77;0.90;;;20.90;33.80;;;;;;5084625;28;20050;-59
2023/05/04 04:36:45;;;;;;;2.22;0.80;;;20.90;33.80;;;;;;5086148;28;20020;-61
2023/05/04 04:39:10;;;;;;;1.58;0.95;;;21.00;33.80;;;;;;5087098;28;20505;-60
2023/05/04 04:41:37;;;;;;;1.58;0.70;;;21.00;33.90;;;;;;5067296;28;20035;-61
2023/05/04 04:44:03;;;;;;;2.05;1.02;;;20.90;33.90;;;;;;5085571;28;20020;-59
2023/05/04 04:46:29;;;;;;;1.10;0.80;;;20.90;33.80;;;;;;5086744;28;20143;-61
2023/05/04 04:48:56;;;;;;;1.80;0.80;;;20.90;33.80;;;;;;5084464;28;20481;-61
2023/05/04 04:51:22;;;;;;;1.73;0.90;;;20.90;33.80;;;;;;5085770;28;20024;-61
2023/05/04 04:53:48;;;;;;;1.65;0.70;;;20.90;33.80;;;;;;5085701;28;20471;-61
2023/05/04 04:56:16;;;;;;;0.88;0.80;;;21.00;33.90;;;;;;5086846;28;20024;-59
2023/05/04 04:58:42;;;;;;;1.13;0.77;;;21.00;33.90;;;;;;5084793;28;20122;-57
2023/05/04 05:01:07;;;;;;;1.70;1.00;;;21.00;33.90;;;;;;5085085;28;20028;-60
2023/05/04 05:03:33;;;;;;;1.27;0.73;;;21.00;33.90;;;;;;5086303;28;20066;-59
2023/05/04 05:06:00;;;;;;;1.45;0.95;;;21.00;33.90;;;;;;5065001;28;20028;-59
2023/05/04 05:08:26;;;;;;;1.35;0.80;;;21.00;33.90;;;;;;5077972;28;20446;-59
2023/05/04 05:10:52;;;;;;;1.70;0.98;;;21.00;33.90;;;;;;5082764;28;20034;-59
2023/05/04 05:13:18;;;;;;;1.38;0.85;;;21.00;33.90;;;;;;5084821;28;20020;-60
2023/05/04 05:15:44;;;;;;;1.38;1.10;;;21.00;33.90;;;;;;5078664;28;20425;-59
2023/05/04 05:18:10;;;;;;;1.25;0.80;;;21.00;33.90;;;;;;5082254;28;20042;-60
2023/05/04 05:20:36;;;;;;;1.42;0.95;;;21.00;33.90;;;;;;5066067;28;20250;-61
2023/05/04 05:23:02;;;;;;;3.40;1.00;;;21.00;33.90;;;;;;5084373;28;20019;-61
2023/05/04 05:25:28;;;;;;;2.35;0.85;;;21.00;33.90;;;;;;5083738;28;20020;-60
2023/05/04 05:27:54;;;;;;;1.50;0.77;;;21.00;33.80;;;;;;5085105;28;20028;-60
2023/05/04 05:30:20;;;;;;;1.00;0.80;;;21.00;33.80;;;;;;5082534;28;20368;-59
2023/05/04 05:32:46;;;;;;;1.98;0.80;;;21.00;33.80;;;;;;5079888;28;20348;-60
2023/05/04 05:35:12;;;;;;;2.38;0.85;;;21.00;33.70;;;;;;5081190;28;20466;-60
2023/05/04 05:37:38;;;;;;;1.73;1.00;;;21.00;33.70;;;;;;5084767;28;20032;-61
2023/05/04 05:40:06;;;;;;;1.42;0.88;;;21.00;33.70;;;;;;5084167;28;20160;-62
2023/05/04 05:42:32;;;;;;;1.58;0.93;;;21.00;33.60;;;;;;5082889;28;20154;-60
2023/05/04 05:45:00;;;;;;;2.65;1.00;;;21.00;33.60;;;;;;5082110;28;20058;-62
2023/05/04 05:47:26;;;;;;;2.30;0.88;;;21.00;33.60;;;;;;5085192;28;20189;-62
2023/05/04 05:49:53;;;;;;;2.28;0.95;;;21.00;33.60;;;;;;5082729;28;20052;-60
2023/05/04 05:52:19;;;;;;;1.33;0.95;;;21.00;33.60;;;;;;5082768;28;20425;-62
2023/05/04 05:54:44;;;;;;;2.35;1.20;;;21.00;33.60;;;;;;5082822;28;20055;-63
2023/05/04 05:57:10;;;;;;;2.03;0.80;;;21.00;33.60;;;;;;5084597;28;20036;-59
2023/05/04 05:59:36;;;;;;;1.35;0.90;;;21.00;33.60;;;;;;5085327;28;20531;-61
2023/05/04 06:02:02;;;;;;;2.08;0.80;;;21.10;33.70;;;;;;5087818;28;20055;-62
2023/05/04 06:04:28;;;;;;;2.25;1.05;;;21.10;33.70;;;;;;5070499;28;20075;-59
2023/05/04 06:06:54;;;;;;;1.65;0.90;;;21.10;33.60;;;;;;5073901;28;20070;-59
2023/05/04 06:09:19;;;;;;;1.70;0.75;;;21.10;33.60;;;;;;5093023;28;20195;-61
2023/05/04 06:11:45;;;;;;;1.65;1.02;;;21.10;33.60;;;;;;5066875;28;20380;-62
2023/05/04 06:14:11;;;;;;;1.90;0.90;;;21.10;33.70;;;;;;5085460;28;20040;-58
2023/05/04 06:16:37;;;;;;;2.72;1.13;;;21.10;33.70;;;;;;5088166;28;20072;-59
2023/05/04 06:19:04;;;;;;;2.10;1.00;;;21.10;33.70;;;;;;5086879;28;20024;-59
2023/05/04 06:21:30;;;;;;;1.88;0.80;;;21.10;33.60;;;;;;5088721;28;20035;-59
2023/05/04 06:23:55;;;;;;;0.82;0.63;;;21.10;33.60;;;;;;5091396;28;20028;-60
2023/05/04 06:26:22;;;;;;;0.95;0.70;;;21.10;33.60;;;;;;5088624;28;20024;-61
2023/05/04 06:28:48;;;;;;;1.92;1.00;;;21.10;33.70;;;;;;5073800;28;20323;-60
2023/05/04 06:31:14;;;;;;;1.45;0.88;;;21.10;33.70;;;;;;5090108;28;20028;-61
2023/05/04 06:33:40;;;;;;;1.50;0.80;;;21.20;33.70;;;;;;5086135;28;20060;-59
2023/05/04 06:36:06;;;;;;;1.40;0.70;;;21.10;33.70;;;;;;5086223;28;20117;-61
2023/05/04 06:38:32;;;;;;;1.88;1.02;;;21.20;33.70;;;;;;5087158;28;20119;-62
2023/05/04 06:40:58;;;;;;;1.42;0.77;;;21.20;33.70;;;;;;5086659;28;20470;-59
2023/05/04 06:43:23;;;;;;;1.70;0.80;;;21.20;33.70;;;;;;5092123;28;20316;-61
2023/05/04 06:45:49;;;;;;;1.45;0.70;;;21.20;33.70;;;;;;5093777;28;20070;-59
2023/05/04 06:48:16;;;;;;;2.65;0.88;;;21.20;33.70;;;;;;5089200;28;20050;-59
2023/05/04 06:50:41;;;;;;;1.17;0.85;;;21.10;33.60;;;;;;5085485;28;20035;-59
2023/05/04 06:53:09;;;;;;;0.88;0.60;;;21.20;33.60;;;;;;5093023;28;20032;-59
2023/05/04 06:55:41;;;;;;;1.42;0.75;;;21.20;33.60;;;;;;5091094;28;20024;-58
2023/05/04 06:58:07;;;;;;;1.38;0.70;;;21.20;33.60;;;;;;5091312;28;20448;-58
2023/05/04 07:00:33;;;;;;;1.58;0.93;;;21.20;33.60;;;;;;5091239;28;20032;-61
2023/05/04 07:02:59;;;;;;;1.70;0.88;;;21.10;33.50;;;;;;5091635;28;20186;-58
2023/05/04 07:05:25;;;;;;;1.63;0.98;;;21.20;33.60;;;;;;5073651;28;20040;-60
2023/05/04 07:07:51;;;;;;;1.88;0.90;;;21.10;33.60;;;;;;5087963;28;20039;-60
2023/05/04 07:10:18;;;;;;;2.13;0.88;;;21.10;33.60;;;;;;5092366;28;20130;-59
2023/05/04 07:12:44;;;;;;;2.08;0.90;;;21.10;33.60;;;;;;5074838;28;20088;-60
2023/05/04 07:15:10;;;;;;;2.08;0.93;;;21.10;33.60;;;;;;5075059;28;20339;-61
2023/05/04 07:17:37;;;;;;;1.63;1.00;;;21.10;33.60;;;;;;5091989;28;20024;-60
2023/05/04 07:20:04;;;;;;;1.60;0.90;;;21.10;33.60;;;;;;5091627;28;20020;-62
2023/05/04 07:22:31;;;;;;;1.77;1.00;;;21.10;33.60;;;;;;5090625;28;20318;-58
2023/05/04 07:24:57;;;;;;;1.25;0.80;;;21.10;33.50;;;;;;5090448;28;20454;-62
2023/05/04 07:27:23;;;;;;;1.15;0.80;;;21.10;33.50;;;;;;5090856;28;20034;-61
2023/05/04 07:29:52;;;;;;;1.52;0.80;;;21.10;34.20;;;;;;5091081;28;20188;-59
2023/05/04 07:32:18;;;;;;;1.48;0.90;;;21.10;33.50;;;;;;5089296;28;20324;-61
2023/05/04 07:34:44;;;;;;;1.50;0.80;;;21.10;33.60;;;;;;5092986;28;20028;-60
2023/05/04 07:37:11;;;;;;;1.25;0.88;;;21.10;33.60;;;;;;5074045;28;20024;-59
2023/05/04 07:39:39;;;;;;;1.30;0.82;;;21.10;33.60;;;;;;5091216;28;20040;-59
2023/05/04 07:42:06;;;;;;;1.33;0.90;;;21.10;33.60;;;;;;5086569;28;20055;-58
2023/05/04 07:44:32;;;;;;;1.45;0.80;;;21.10;34.20;;;;;;5085914;28;20039;-58
2023/05/04 07:46:59;;;;;;;2.80;1.00;;;21.10;33.60;;;;;;5087669;28;20327;-62
2023/05/04 07:49:25;;;;;;;1.38;0.90;;;21.10;33.60;;;;;;5082322;28;20315;-59
2023/05/04 07:51:51;;;;;;;2.05;0.70;;;21.10;33.60;;;;;;5086337;28;20039;-59
2023/05/04 07:54:17;;;;;;;1.00;0.80;;;21.10;33.70;;;;;;5086018;28;20082;-60
2023/05/04 07:56:44;;;;;;;1.17;0.80;;;21.10;33.70;;;;;;5087485;28;20032;-60
2023/05/04 07:59:09;;;;;;;1.75;0.90;;;21.10;33.70;;;;;;5067734;28;20056;-59
2023/05/04 08:01:35;;;;;;;1.90;0.70;;;21.10;33.70;;;;;;5088091;28;20067;-59
2023/05/04 08:04:01;;;;;;;1.45;0.90;;;21.10;33.80;;;;;;5086125;28;20406;-61
2023/05/04 08:06:27;;;;;;;1.50;0.90;;;21.20;33.80;;;;;;5088932;28;20331;-60
2023/05/04 08:08:53;;;;;;;1.23;0.80;;;21.10;33.80;;;;;;5089325;28;20036;-60
2023/05/04 08:11:19;;;;;;;1.75;0.90;;;21.10;33.80;;;;;;5090218;28;20176;-60
2023/05/04 08:13:46;;;;;;;1.38;0.75;;;21.20;33.90;;;;;;5091948;28;20040;-59
2023/05/04 08:16:12;;;;;;;3.10;0.80;;;21.10;33.90;;;;;;5073450;28;20120;-59
2023/05/04 08:18:38;;;;;;;1.02;0.70;;;21.20;33.90;;;;;;5091073;28;20199;-61
2023/05/04 08:21:04;;;;;;;1.23;0.57;;;21.20;34.00;;;;;;5072164;28;20379;-60
2023/05/04 08:23:31;;;;;;;2.17;0.88;;;21.20;34.00;;;;;;5090402;28;20197;-60
2023/05/04 08:25:57;;;;;;;1.10;0.75;;;21.20;34.00;;;;;;5088118;28;20435;-59
2023/05/04 08:28:23;;;;;;;3.45;0.90;;;21.20;34.00;;;;;;5071116;28;20040;-60
2023/05/04 08:30:49;;;;;;;1.63;0.70;;;21.20;34.00;;;;;;5071250;28;20043;-61
2023/05/04 08:33:15;;;;;;;1.85;1.00;;;21.20;34.10;;;;;;5089918;28;20366;-59
2023/05/04 08:35:41;;;;;;;2.03;1.15;;;21.20;34.10;;;;;;5089222;28;20038;-59
2023/05/04 08:38:07;;;;;;;2.65;1.10;;;21.20;34.10;;;;;;5090012;28;20032;-62
2023/05/04 08:40:33;;;;;;;1.02;0.70;;;21.20;34.70;;;;;;5089610;28;20334;-57
2023/05/04 08:42:58;;;;;;;1.73;0.77;;;21.20;34.10;;;;;;5089939;28;20070;-58
2023/05/04 08:45:25;;;;;;;1.17;0.77;;;21.20;34.10;;;;;;5088958;28;20492;-60
2023/05/04 08:47:50;;;;;;;1.55;0.73;;;21.20;34.10;;;;;;5087814;28;21689;-60
2023/05/04 08:50:16;;;;;;;2.08;1.10;;;21.20;34.10;;;;;;5089665;28;20048;-61
2023/05/04 08:52:47;;;;;;;1.40;0.80;;;21.20;34.10;;;;;;5089948;28;20404;-58
2023/05/04 08:55:15;;;;;;;1.02;0.90;;;21.20;34.10;;;;;;5088607;28;20051;-60
2023/05/04 08:57:42;;;;;;;1.27;0.80;;;21.20;34.10;;;;;;5089280;28;20433;-58
2023/05/04 09:00:15;;;;;;;1.25;0.68;;;21.20;34.10;;;;;;5089496;28;20020;-58
2023/05/04 09:02:41;;;;;;;1.83;1.10;;;21.20;34.10;;;;;;5088220;28;20092;-59
2023/05/04 09:05:10;;;;;;;1.05;0.70;;;21.20;34.10;;;;;;5086452;28;20035;-61
2023/05/04 09:07:36;;;;;;;1.02;0.75;;;21.20;34.10;;;;;;5088069;28;20034;-61
2023/05/04 09:10:02;;;;;;;1.55;0.70;;;21.30;34.20;;;;;;5088833;28;20032;-59
2023/05/04 09:12:28;;;;;;;1.33;0.80;;;21.30;34.80;;;;;;5089399;28;20082;-59
2023/05/04 09:14:54;;;;;;;2.42;1.10;;;21.20;34.10;;;;;;5089224;28;20178;-56
2023/05/04 09:17:24;;;;;;;2.00;0.93;;;21.30;34.20;;;;;;5087785;28;20036;-58
2023/05/04 09:20:00;;;;;;;1.15;0.90;;;21.30;34.20;;;;;;5089389;28;20096;-62
2023/05/04 09:22:28;;;;;;;1.70;0.70;;;21.30;34.20;;;;;;5088139;28;20194;-60
2023/05/04 09:25:04;;;;;;;1.60;0.77;;;21.30;34.20;;;;;;5088810;28;20316;-60
2023/05/04 09:27:30;;;;;;;1.85;0.80;;;21.30;34.20;;;;;;5088473;28;20118;-58
2023/05/04 09:29:56;;;;;;;1.13;0.85;;;21.30;34.30;;;;;;5088598;28;20028;-60
2023/05/04 09:32:22;;;;;;;1.95;1.10;;;21.40;34.30;;;;;;5088704;28;20035;-60
2023/05/04 09:34:52;;;;;;;2.70;1.10;;;21.30;34.30;;;;;;5088925;28;20085;-59
2023/05/04 09:37:22;;;;;;;1.67;0.90;;;21.40;34.40;;;;;;5086690;28;20058;-60
2023/05/04 09:39:58;;;;;;;1.70;1.08;;;21.40;34.40;;;;;;5068775;28;20025;-60
2023/05/04 09:42:25;;;;;;;1.13;0.70;;;21.40;34.50;;;;;;5074097;28;20124;-60
2023/05/04 09:45:05;;;;;;;1.85;1.10;;;21.40;34.50;;;;;;5085844;28;20058;-58
2023/05/04 09:47:33;;;;;;;2.70;0.90;;;21.40;34.50;;;;;;5091686;28;20050;-57
2023/05/04 09:50:22;;;;;;;1.55;0.88;;;21.40;34.60;;;;;;5089750;28;20036;-61
2023/05/04 09:52:48;;;;;;;2.17;1.10;;;21.40;34.60;;;;;;5074331;28;20059;-60
2023/05/04 09:55:17;;;;;;;2.05;1.02;;;21.40;34.70;;;;;;5069642;28;20316;-58
2023/05/04 09:57:44;;;;;;;1.60;0.85;;;21.40;34.70;;;;;;5094318;28;20450;-62
2023/05/04 10:00:16;;;;;;;3.05;1.13;;;21.40;34.80;;;;;;5076074;28;20016;-60
2023/05/04 10:02:46;;;;;;;2.22;0.82;;;21.40;34.80;;;;;;5094388;28;20059;-60
2023/05/04 10:05:15;;;;;;;1.33;0.88;;;21.40;34.90;;;;;;5093483;28;20314;-59
2023/05/04 10:07:42;;;;;;;1.25;0.88;;;21.40;34.90;;;;;;5093687;28;20072;-61
2023/05/04 10:10:11;;;;;;;1.75;0.80;;;21.50;34.90;;;;;;5092882;28;20040;-61
2023/05/04 10:12:37;;;;;;;1.67;0.90;;;21.40;34.90;;;;;;5093161;28;20034;-62
2023/05/04 10:15:14;;;;;;;1.55;0.80;;;21.50;35.00;;;;;;5074729;28;20107;-60
2023/05/04 10:17:40;;;;;;;1.27;0.93;;;21.50;35.00;;;;;;5074881;28;20032;-59
2023/05/04 10:20:14;;;;;;;1.90;1.05;;;21.50;35.00;;;;;;5092284;28;20081;-59
2023/05/04 10:22:46;;;;;;;2.40;1.10;;;21.50;35.00;;;;;;5089581;28;20153;-60
2023/05/04 10:25:31;;;;;;;2.30;1.10;;;21.50;35.00;;;;;;5091687;28;20024;-59
2023/05/04 10:28:08;;;;;;;3.05;0.90;;;21.50;35.00;;;;;;5087984;28;20028;-59
2023/05/04 10:30:35;;;;;;;1.40;1.00;;;21.50;35.10;;;;;;5089303;28;20412;-59
2023/05/04 10:33:01;;;;;;;1.77;0.80;;;21.50;35.10;;;;;;5085011;28;20032;-59
2023/05/04 10:35:27;;;;;;;1.75;0.80;;;21.60;35.20;;;;;;5091150;28;20265;-56
2023/05/04 10:37:54;;;;;;;2.05;0.80;;;21.60;35.20;;;;;;5089971;28;20055;-62
2023/05/04 10:40:37;;;;;;;1.63;0.93;;;21.60;35.50;;;;;;5091753;28;20054;-60
2023/05/04 10:43:05;;;;;;;1.60;0.80;;;21.60;35.70;;;;;;5092007;28;20042;-57
2023/05/04 10:45:39;;;;;;;1.30;0.80;;;21.60;35.70;;;;;;5090336;28;20173;-59
2023/05/04 10:48:06;;;;;;;1.42;0.90;;;21.60;35.70;;;;;;5089774;28;20336;-60
2023/05/04 10:50:45;;;;;;;1.83;1.10;;;21.70;35.60;;;;;;5084148;28;20040;-56
2023/05/04 10:53:12;;;;;;;1.65;1.17;;;21.70;35.60;;;;;;5089227;28;20028;-58
2023/05/04 10:55:40;;;;;;;1.67;1.00;;;21.70;35.50;;;;;;5048858;28;20111;-59
2023/05/04 10:58:06;;;;;;;2.30;1.27;;;21.70;35.50;;;;;;5069638;28;20443;-59
2023/05/04 11:00:39;;;;;;;2.25;1.13;;;21.70;35.40;;;;;;5086540;28;20029;-60
2023/05/04 11:03:06;;;;;;;1.25;0.90;;;21.70;35.40;;;;;;5090437;28;20020;-59
2023/05/04 11:05:53;;;;;;;1.33;1.00;;;21.70;35.30;;;;;;5085636;28;20040;-59
2023/05/04 11:08:20;;;;;;;1.63;1.10;;;21.80;35.30;;;;;;5089230;28;20031;-59
2023/05/04 11:10:47;;;;;;;1.77;1.10;;;21.80;35.30;;;;;;5089791;28;20016;-61
2023/05/04 11:13:14;;;;;;;1.63;1.00;;;21.80;35.20;;;;;;5090678;28;20032;-59
2023/05/04 11:15:48;;;;;;;1.42;1.00;;;21.80;35.20;;;;;;5084737;28;20039;-59
2023/05/04 11:18:14;;;;;;;1.48;1.02;;;21.80;35.20;;;;;;5086301;28;20043;-60
2023/05/04 11:20:41;;;;;;;1.98;0.85;;;21.80;35.30;;;;;;5087247;28;20471;-59
2023/05/04 11:23:09;;;;;;;1.63;1.00;;;21.80;35.60;;;;;;5072393;28;20063;-59
2023/05/04 11:25:36;;;;;;;1.58;1.15;;;21.80;35.90;;;;;;5086778;28;20032;-61
2023/05/04 11:28:02;;;;;;;1.95;0.90;;;21.80;36.10;;;;;;5090715;28;20024;-59
2023/05/04 11:30:35;;;;;;;2.40;1.20;;;21.90;36.30;;;;;;5091440;28;20040;-60
2023/05/04 11:33:03;;;;;;;1.92;1.02;;;21.90;36.40;;;;;;5091933;28;20043;-59
2023/05/04 11:35:29;;;;;;;2.08;1.25;;;21.90;36.40;;;;;;5088021;28;20051;-60
2023/05/04 11:37:55;;;;;;;1.60;0.95;;;21.90;36.40;;;;;;5083370;28;20519;-59
2023/05/04 11:40:24;;;;;;;2.35;1.10;;;22.00;36.50;;;;;;5085309;28;20032;-60
2023/05/04 11:42:51;;;;;;;1.73;1.05;;;21.90;36.40;;;;;;5084615;28;20479;-59
2023/05/04 11:45:26;;;;;;;1.08;0.90;;;22.00;36.40;;;;;;5082938;28;20155;-59
2023/05/04 11:47:55;;;;;;;1.90;1.17;;;22.00;36.40;;;;;;5085542;28;20035;-62
2023/05/04 11:50:21;;;;;;;1.30;0.88;;;22.10;36.50;;;;;;5082186;28;20044;-61
2023/05/04 11:52:47;;;;;;;1.77;0.90;;;22.00;36.40;;;;;;5082925;28;20024;-60
2023/05/04 11:55:30;;;;;;;1.25;1.00;;;22.10;36.50;;;;;;5085687;28;20143;-59
2023/05/04 11:58:01;;;;;;;1.83;1.20;;;22.10;36.40;;;;;;5085427;28;20062;-60
2023/05/04 12:00:40;;;;;;;1.75;1.10;;;22.10;36.40;;;;;;5087161;28;20123;-62
2023/05/04 12:03:11;;;;;;;2.20;1.42;;;22.10;36.20;;;;;;5084799;28;20086;-57
2023/05/04 12:05:37;;;;;;;1.42;1.17;;;22.20;36.10;;;;;;5083904;28;20569;-61
2023/05/04 12:08:06;;;;;;;2.38;1.30;;;22.10;36.00;;;;;;5083063;28;20028;-60
2023/05/04 12:10:33;;;;;;;1.13;0.82;;;22.20;36.20;;;;;;5085569;28;20068;-60
2023/05/04 12:13:02;;;;;;;1.33;0.88;;;22.20;36.30;;;;;;5086661;28;20043;-60
2023/05/04 12:15:32;;;;;;;1.63;0.90;;;22.20;36.30;;;;;;5083326;28;20020;-64
2023/05/04 12:17:58;;;;;;;1.90;0.95;;;22.30;36.40;;;;;;5061386;28;20148;-62
2023/05/04 12:20:28;;;;;;;1.92;1.20;;;22.30;36.50;;;;;;5066843;28;20040;-61
2023/05/04 12:23:04;;;;;;;1.85;1.17;;;22.30;36.40;;;;;;5085875;28;20039;-62
2023/05/04 12:25:30;;;;;;;1.50;1.13;;;22.30;36.30;;;;;;5065772;28;20114;-60
2023/05/04 12:27:56;;;;;;;1.85;1.13;;;22.30;36.20;;;;;;5065884;28;20154;-56
2023/05/04 12:30:22;;;;;;;2.33;1.50;;;22.30;36.20;;;;;;5085285;28;20063;-56
2023/05/04 12:32:48;;;;;;;2.40;1.50;;;22.40;36.30;;;;;;5069044;28;20036;-65
2023/05/04 12:35:14;;;;;;;2.30;1.20;;;22.40;36.30;;;;;;5085740;28;20145;-62
2023/05/04 12:37:40;;;;;;;2.58;1.73;;;22.40;36.20;;;;;;5068092;28;20107;-62
2023/05/04 12:40:08;;;;;;;1.63;1.40;;;22.40;36.10;;;;;;5086689;28;20126;-60
2023/05/04 12:42:33;;;;;;;3.53;1.50;;;22.50;35.90;;;;;;5085377;28;20081;-58
2023/05/04 12:44:59;;;;;;;2.53;1.50;;;22.40;35.70;;;;;;5086095;28;20044;-61
2023/05/04 12:47:25;;;;;;;1.98;1.40;;;22.40;35.50;;;;;;5085828;28;20075;-59